Time;durP1;ratioP1;P1;durP2;ratioP2;P2;SDS_P1;SDS_P2;PMS_P1;PMS_P2;Temp;Humidity;BMP_temperature;BMP_pressure;BME280_temperature;BME280_humidity;BME280_pressure;Samples;Min_cycle;Max_cycle;Signal;HPM_P1;HPM_P2
2023/03/31 00:00:11;;;;;;;;;;;15.00;99.90;15.30;99274.00;;;;340272;28;90939;-89
2023/03/31 00:00:23;;;;;;;;;;;15.00;99.90;15.20;99265.00;;;;339639;28;83308;-89
2023/03/31 00:00:35;;;;;;;;;;;15.00;99.90;15.20;99266.00;;;;340487;28;89958;-89
2023/03/31 00:00:50;;;;;;;;;;;15.00;99.90;15.30;99264.00;;;;343669;28;83480;-89
2023/03/31 00:01:03;;;;;;;;;;;15.00;99.90;15.30;99271.00;;;;341569;28;90635;-89
2023/03/31 00:01:15;;;;;;;;;;;15.00;99.90;15.30;99261.00;;;;340875;28;82528;-88
2023/03/31 00:01:27;;;;;;;;;;;15.00;99.90;15.40;99262.00;;;;339061;28;90935;-89
2023/03/31 00:01:41;;;;;;;;;;;15.00;99.90;15.40;99264.00;;;;338084;28;82584;-89
2023/03/31 00:01:53;;;;;;;;;;;15.00;99.90;15.30;99269.00;;;;337548;28;89518;-89
2023/03/31 00:02:12;;;;;;;;;;;15.00;99.90;15.20;99262.00;;;;339579;28;82547;-89
2023/03/31 00:02:24;;;;;;;;;;;15.00;99.90;15.30;99269.00;;;;341732;28;89464;-89
2023/03/31 00:02:40;;;;;;;;;;;15.00;99.90;15.40;99263.00;;;;342250;28;82691;-90
2023/03/31 00:02:53;;;;;;;;;;;15.00;99.90;15.30;99269.00;;;;339165;28;90180;-88
2023/03/31 00:03:08;;;;;;;;;;;15.00;99.90;15.20;99263.00;;;;342031;28;83532;-89
2023/03/31 00:03:21;;;;;;;;;;;15.00;99.90;15.20;99260.00;;;;343223;28;88445;-90
2023/03/31 00:03:37;;;;;;;;;;;15.00;99.90;15.30;99260.00;;;;343363;28;83504;-89
2023/03/31 00:03:49;;;;;;;;;;;15.00;99.90;15.30;99257.00;;;;340504;28;88428;-90
2023/03/31 00:04:04;;;;;;;;;;;15.00;99.90;15.30;99257.00;;;;341980;28;82566;-89
2023/03/31 00:04:17;;;;;;;;;;;15.00;99.90;15.20;99255.00;;;;341812;28;91322;-89
2023/03/31 00:04:30;;;;;;;;;;;15.00;99.90;15.20;99250.00;;;;342326;28;83332;-89
2023/03/31 00:04:51;;;;;;;;;;;15.00;99.90;15.20;99263.00;;;;339100;28;90357;-89
2023/03/31 00:05:04;;;;;;;;;;;15.00;99.90;15.20;99262.00;;;;340637;28;83595;-90
2023/03/31 00:05:20;;;;;;;;;;;15.00;99.90;15.20;99261.00;;;;337671;28;91679;-90
2023/03/31 00:05:32;;;;;;;;;;;15.00;99.90;15.20;99262.00;;;;339607;28;83336;-89
2023/03/31 00:05:46;;;;;;;;;;;14.90;99.90;15.20;99267.00;;;;340336;28;89253;-90
2023/03/31 00:05:59;;;;;;;;;;;15.00;99.90;15.20;99259.00;;;;339281;28;83491;-89
2023/03/31 00:06:16;;;;;;;;;;;15.00;99.90;15.30;99252.00;;;;340357;28;90453;-89
2023/03/31 00:06:30;;;;;;;;;;;15.00;99.90;15.30;99261.00;;;;338358;28;82295;-89
2023/03/31 00:06:42;;;;;;;;;;;15.00;99.90;15.30;99264.00;;;;337659;28;89494;-90
2023/03/31 00:06:54;;;;;;;;;;;15.00;99.90;15.30;99261.00;;;;342261;28;83306;-89
2023/03/31 00:07:07;;;;;;;;;;;15.00;99.90;15.30;99250.00;;;;340234;28;90477;-89
2023/03/31 00:07:20;;;;;;;;;;;15.00;99.90;15.20;99255.00;;;;342160;28;82571;-88
2023/03/31 00:07:32;;;;;;;;;;;15.00;99.90;15.20;99262.00;;;;341800;28;89395;-89
2023/03/31 00:07:44;;;;;;;;;;;15.00;99.90;15.20;99258.00;;;;340814;28;83494;-90
2023/03/31 00:07:59;;;;;;;;;;;15.00;99.90;15.20;99247.00;;;;339143;28;91354;-89
2023/03/31 00:08:12;;;;;;;;;;;14.90;99.90;15.20;99264.00;;;;339593;28;83358;-88
2023/03/31 00:08:28;;;;;;;;;;;15.00;99.90;15.10;99243.00;;;;340383;28;90490;-89
2023/03/31 00:08:40;;;;;;;;;;;15.00;99.90;15.10;99245.00;;;;340900;28;82465;-89
2023/03/31 00:08:52;;;;;;;;;;;15.00;99.90;15.10;99247.00;;;;340435;28;91213;-90
2023/03/31 00:09:05;;;;;;;;;;;15.00;99.90;15.10;99251.00;;;;342011;28;83350;-89
2023/03/31 00:09:17;;;;;;;;;;;14.90;99.90;15.10;99248.00;;;;340340;28;88817;-89
2023/03/31 00:09:32;;;;;;;;;;;15.00;99.90;15.20;99252.00;;;;340866;28;82537;-89
2023/03/31 00:09:44;;;;;;;;;;;15.00;99.90;15.20;99258.00;;;;340220;28;91101;-90
2023/03/31 00:10:00;;;;;;;;;;;15.00;99.90;15.20;99248.00;;;;339631;28;82336;-89
2023/03/31 00:10:30;;;;;;;;;;;15.00;99.90;15.20;99250.00;;;;337627;28;90801;-89
2023/03/31 00:10:44;;;;;;;;;;;15.00;99.90;15.10;99243.00;;;;342199;28;83546;-89
2023/03/31 00:10:59;;;;;;;;;;;15.00;99.90;15.20;99239.00;;;;340422;28;89192;-89
2023/03/31 00:11:11;;;;;;;;;;;15.00;99.90;15.30;99247.00;;;;342300;28;83053;-89
2023/03/31 00:11:23;;;;;;;;;;;15.00;99.90;15.20;99242.00;;;;340647;28;89052;-90
2023/03/31 00:11:36;;;;;;;;;;;15.00;99.90;15.20;99245.00;;;;339507;28;82532;-88
2023/03/31 00:11:48;;;;;;;;;;;15.00;99.90;15.30;99252.00;;;;338923;28;91367;-89
2023/03/31 00:12:00;;;;;;;;;;;15.00;99.90;15.30;99241.00;;;;339467;28;83511;-89
2023/03/31 00:12:13;;;;;;;;;;;15.00;99.90;15.20;99244.00;;;;340011;28;92903;-89
2023/03/31 00:12:25;;;;;;;;;;;15.00;99.90;15.20;99243.00;;;;341925;28;83554;-89
2023/03/31 00:12:36;;;;;;;;;;;15.00;99.90;15.20;99231.00;;;;341502;28;91910;-90
2023/03/31 00:12:48;;;;;;;;;;;14.90;99.90;15.20;99235.00;;;;341950;28;83528;-90
2023/03/31 00:13:00;;;;;;;;;;;15.00;99.90;15.20;99242.00;;;;340320;28;90518;-89
2023/03/31 00:13:12;;;;;;;;;;;15.00;99.90;15.20;99237.00;;;;339186;28;83526;-88
2023/03/31 00:13:24;;;;;;;;;;;15.00;99.90;15.20;99233.00;;;;341699;28;89373;-90
2023/03/31 00:13:36;;;;;;;;;;;14.90;99.90;15.30;99235.00;;;;339425;28;82326;-89
2023/03/31 00:13:48;;;;;;;;;;;14.90;99.90;15.30;99228.00;;;;339079;28;91326;-89
2023/03/31 00:14:00;;;;;;;;;;;14.90;99.90;15.20;99239.00;;;;340718;28;83695;-89
2023/03/31 00:14:12;;;;;;;;;;;14.90;99.90;15.20;99234.00;;;;340320;28;90226;-90
2023/03/31 00:14:24;;;;;;;;;;;14.90;99.90;15.20;99229.00;;;;340854;28;83423;-89
2023/03/31 00:14:36;;;;;;;;;;;14.90;99.90;15.20;99216.00;;;;340218;28;88507;-89
2023/03/31 00:14:47;;;;;;;;;;;14.90;99.90;15.20;99220.00;;;;342221;28;82645;-89
2023/03/31 00:14:59;;;;;;;;;;;14.90;99.90;15.20;99221.00;;;;339108;28;88072;-89
2023/03/31 00:15:11;;;;;;;;;;;14.90;99.90;15.20;99231.00;;;;342099;28;83487;-88
2023/03/31 00:15:23;;;;;;;;;;;14.90;99.90;15.20;99224.00;;;;341757;28;92009;-89
2023/03/31 00:15:35;;;;;;;;;;;14.90;99.90;15.20;99219.00;;;;340702;28;83389;-89
2023/03/31 00:15:47;;;;;;;;;;;14.90;99.90;15.30;99222.00;;;;341746;28;90395;-89
2023/03/31 00:16:04;;;;;;;;;;;14.90;99.90;15.20;99223.00;;;;342220;28;82280;-89
2023/03/31 00:16:16;;;;;;;;;;;14.90;99.90;15.20;99227.00;;;;341376;28;90462;-89
2023/03/31 00:16:28;;;;;;;;;;;14.90;99.90;15.20;99222.00;;;;340421;28;83558;-90
2023/03/31 00:16:40;;;;;;;;;;;14.90;99.90;15.10;99219.00;;;;340275;28;87901;-89
2023/03/31 00:16:52;;;;;;;;;;;14.90;99.90;15.10;99214.00;;;;341994;28;83522;-88
2023/03/31 00:17:04;;;;;;;;;;;14.90;99.90;15.10;99218.00;;;;342909;28;91441;-89
2023/03/31 00:17:16;;;;;;;;;;;14.90;99.90;15.10;99218.00;;;;339440;28;83688;-90
2023/03/31 00:17:27;;;;;;;;;;;14.90;99.90;15.10;99222.00;;;;339240;28;91612;-90
2023/03/31 00:17:39;;;;;;;;;;;14.90;99.90;15.10;99213.00;;;;339274;28;83344;-90
2023/03/31 00:17:51;;;;;;;;;;;14.90;99.90;15.10;99217.00;;;;341814;28;89087;-90
2023/03/31 00:18:03;;;;;;;;;;;14.90;99.90;15.20;99222.00;;;;342245;28;82475;-90
2023/03/31 00:18:15;;;;;;;;;;;14.90;99.90;15.20;99222.00;;;;336394;28;92171;-89
2023/03/31 00:18:28;;;;;;;;;;;14.90;99.90;15.20;99214.00;;;;341045;28;82536;-89
2023/03/31 00:18:46;;;;;;;;;;;14.90;99.90;15.20;99224.00;;;;342008;28;90549;-89
2023/03/31 00:19:00;;;;;;;;;;;14.90;99.90;15.20;99217.00;;;;341100;28;83349;-90
2023/03/31 00:19:19;;;;;;;;;;;14.90;99.90;15.20;99219.00;;;;340917;28;88997;-89
2023/03/31 00:19:32;;;;;;;;;;;14.90;99.90;15.30;99215.00;;;;339557;28;82501;-90
2023/03/31 00:19:43;;;;;;;;;;;14.90;99.90;15.20;99219.00;;;;340370;28;91334;-90
2023/03/31 00:19:59;;;;;;;;;;;14.90;99.90;15.20;99215.00;;;;342422;28;82571;-90
2023/03/31 00:20:11;;;;;;;;;;;14.90;99.90;15.30;99230.00;;;;339143;28;91269;-90
2023/03/31 00:20:23;;;;;;;;;;;14.90;99.90;15.20;99223.00;;;;340883;28;83507;-89
2023/03/31 00:20:36;;;;;;;;;;;14.90;99.90;15.10;99210.00;;;;342016;28;91291;-90
2023/03/31 00:20:51;;;;;;;;;;;14.90;99.90;15.20;99218.00;;;;340951;28;83382;-88
2023/03/31 00:21:23;;;;;;;;;;;14.90;99.90;15.20;99218.00;;;;340462;28;89312;-89
2023/03/31 00:21:35;;;;;;;;;;;14.90;99.90;15.20;99220.00;;;;342280;28;82565;-89
2023/03/31 00:21:47;;;;;;;;;;;14.90;99.90;15.20;99225.00;;;;339167;28;90184;-89
2023/03/31 00:22:04;;;;;;;;;;;14.90;99.90;15.10;99214.00;;;;342270;28;83385;-89
2023/03/31 00:22:21;;;;;;;;;;;14.90;99.90;15.10;99219.00;;;;340251;28;90642;-89
2023/03/31 00:22:33;;;;;;;;;;;14.90;99.90;15.20;99226.00;;;;339862;28;82598;-89
2023/03/31 00:22:48;;;;;;;;;;;14.90;99.90;15.10;99216.00;;;;339278;28;89504;-89
2023/03/31 00:23:00;;;;;;;;;;;14.90;99.90;15.20;99217.00;;;;340861;28;82747;-89
2023/03/31 00:23:13;;;;;;;;;;;14.90;99.90;15.10;99222.00;;;;340093;28;91191;-89
2023/03/31 00:23:26;;;;;;;;;;;14.90;99.90;15.10;99211.00;;;;342356;28;83465;-89
2023/03/31 00:23:39;;;;;;;;;;;14.90;99.90;15.10;99218.00;;;;343109;28;89640;-90
2023/03/31 00:23:59;;;;;;;;;;;14.90;99.90;15.20;99210.00;;;;342394;28;82329;-89
2023/03/31 00:24:11;;;;;;;;;;;14.90;99.90;15.30;99217.00;;;;341831;28;89555;-89
2023/03/31 00:24:23;;;;;;;;;;;14.90;99.90;15.30;99211.00;;;;342360;28;82616;-89
2023/03/31 00:24:35;;;;;;;;;;;14.90;99.90;15.30;99211.00;;;;340556;28;87844;-89
2023/03/31 00:24:47;;;;;;;;;;;14.90;99.90;15.30;99210.00;;;;339781;28;82175;-88
2023/03/31 00:24:59;;;;;;;;;;;14.90;99.90;15.30;99211.00;;;;342077;28;89586;-90
2023/03/31 00:25:15;;;;;;;;;;;14.90;99.90;15.30;99212.00;;;;340854;28;83559;-89
2023/03/31 00:25:26;;;;;;;;;;;14.90;99.90;15.30;99217.00;;;;340571;28;89657;-89
2023/03/31 00:25:40;;;;;;;;;;;14.90;99.90;15.20;99220.00;;;;339597;28;82455;-89
2023/03/31 00:25:55;;;;;;;;;;;14.90;99.90;15.20;99214.00;;;;339360;28;89351;-89
2023/03/31 00:26:07;;;;;;;;;;;14.90;99.90;15.30;99210.00;;;;339558;28;83527;-90
2023/03/31 00:26:21;;;;;;;;;;;14.90;99.90;15.20;99215.00;;;;341615;28;90587;-89
2023/03/31 00:26:33;;;;;;;;;;;14.90;99.90;15.20;99203.00;;;;342131;28;83558;-89
2023/03/31 00:26:45;;;;;;;;;;;14.90;99.90;15.20;99208.00;;;;340480;28;91886;-89
2023/03/31 00:27:06;;;;;;;;;;;14.90;99.90;15.20;99204.00;;;;341655;28;83606;-89
2023/03/31 00:27:18;;;;;;;;;;;14.90;99.90;15.10;99212.00;;;;341722;28;90661;-89
2023/03/31 00:27:29;;;;;;;;;;;14.90;99.90;15.10;99214.00;;;;338341;28;82498;-89
2023/03/31 00:27:43;;;;;;;;;;;14.90;99.90;15.20;99217.00;;;;339020;28;92504;-89
2023/03/31 00:27:54;;;;;;;;;;;14.90;99.90;15.20;99214.00;;;;342367;28;83494;-89
2023/03/31 00:28:06;;;;;;;;;;;14.90;99.90;15.20;99211.00;;;;341933;28;89383;-88
2023/03/31 00:28:18;;;;;;;;;;;14.90;99.90;15.10;99216.00;;;;338310;28;83490;-89
2023/03/31 00:28:30;;;;;;;;;;;14.90;99.90;15.20;99219.00;;;;337966;28;91281;-90
2023/03/31 00:28:41;;;;;;;;;;;14.90;99.90;15.20;99217.00;;;;340794;28;83539;-89
2023/03/31 00:28:53;;;;;;;;;;;14.90;99.90;15.10;99219.00;;;;340569;28;89085;-89
2023/03/31 00:29:06;;;;;;;;;;;14.90;99.90;15.10;99214.00;;;;341922;28;83309;-89
2023/03/31 00:29:18;;;;;;;;;;;14.90;99.90;15.10;99222.00;;;;341686;28;91587;-89
2023/03/31 00:29:30;;;;;;;;;;;14.90;99.90;15.10;99218.00;;;;340810;28;83461;-89
2023/03/31 00:29:42;;;;;;;;;;;14.90;99.90;15.10;99211.00;;;;341459;28;90646;-89
2023/03/31 00:29:54;;;;;;;;;;;14.90;99.90;15.10;99220.00;;;;341952;28;83404;-89
2023/03/31 00:30:07;;;;;;;;;;;14.80;99.90;15.00;99220.00;;;;340154;28;89497;-89
2023/03/31 00:30:18;;;;;;;;;;;14.90;99.90;15.10;99218.00;;;;341944;28;83519;-89
2023/03/31 00:30:30;;;;;;;;;;;14.80;99.90;15.00;99221.00;;;;340353;28;89318;-89
2023/03/31 00:30:42;;;;;;;;;;;14.90;99.90;15.10;99224.00;;;;340834;28;83608;-89
2023/03/31 00:30:59;;;;;;;;;;;14.90;99.90;15.20;99228.00;;;;341707;28;90304;-88
2023/03/31 00:31:11;;;;;;;;;;;14.80;99.90;15.20;99223.00;;;;342086;28;83481;-89
2023/03/31 00:31:22;;;;;;;;;;;14.90;99.90;15.10;99226.00;;;;338924;28;91327;-89
2023/03/31 00:31:34;;;;;;;;;;;14.90;99.90;15.10;99220.00;;;;342234;28;82348;-90
2023/03/31 00:31:47;;;;;;;;;;;14.90;99.90;15.10;99224.00;;;;341980;28;90116;-89
2023/03/31 00:31:59;;;;;;;;;;;14.90;99.90;15.10;99216.00;;;;343443;28;82395;-90
2023/03/31 00:32:13;;;;;;;;;;;14.90;99.90;15.10;99210.00;;;;341961;28;89065;-89
2023/03/31 00:32:25;;;;;;;;;;;14.80;99.90;15.10;99211.00;;;;340914;28;82686;-89
2023/03/31 00:32:37;;;;;;;;;;;14.80;99.90;15.10;99214.00;;;;340672;28;91139;-89
2023/03/31 00:32:49;;;;;;;;;;;14.90;99.90;15.10;99207.00;;;;338526;28;82548;-89
2023/03/31 00:33:01;;;;;;;;;;;14.90;99.90;15.10;99212.00;;;;339074;28;90755;-90
2023/03/31 00:33:13;;;;;;;;;;;14.90;99.90;15.10;99214.00;;;;340834;28;83529;-89
2023/03/31 00:33:25;;;;;;;;;;;14.80;99.90;15.10;99214.00;;;;342021;28;91565;-88
2023/03/31 00:33:37;;;;;;;;;;;14.90;99.90;15.10;99211.00;;;;340930;28;83497;-88
2023/03/31 00:33:49;;;;;;;;;;;14.90;99.90;15.10;99207.00;;;;341706;28;92732;-89
2023/03/31 00:34:01;;;;;;;;;;;14.90;99.90;15.00;99200.00;;;;343705;28;83359;-89
2023/03/31 00:34:12;;;;;;;;;;;14.90;99.90;15.00;99205.00;;;;340348;28;91620;-89
2023/03/31 00:34:25;;;;;;;;;;;14.80;99.90;15.00;99203.00;;;;343667;28;83454;-89
2023/03/31 00:34:37;;;;;;;;;;;14.80;99.90;15.00;99201.00;;;;342014;28;90179;-89
2023/03/31 00:34:49;;;;;;;;;;;14.80;99.90;15.00;99196.00;;;;339764;28;82410;-89
2023/03/31 00:35:01;;;;;;;;;;;14.80;99.90;15.00;99199.00;;;;340632;28;88962;-90
2023/03/31 00:35:13;;;;;;;;;;;14.80;99.90;15.00;99198.00;;;;342247;28;82412;-90
2023/03/31 00:35:24;;;;;;;;;;;14.80;99.90;15.00;99198.00;;;;341680;28;90635;-89
2023/03/31 00:35:38;;;;;;;;;;;14.80;99.90;15.10;99201.00;;;;343495;28;82506;-89
2023/03/31 00:35:50;;;;;;;;;;;14.80;99.90;15.10;99188.00;;;;341607;28;92773;-89
2023/03/31 00:36:04;;;;;;;;;;;14.80;99.90;15.00;99189.00;;;;342014;28;83462;-89
2023/03/31 00:36:20;;;;;;;;;;;14.80;99.90;15.10;99188.00;;;;341630;28;90888;-89
2023/03/31 00:36:35;;;;;;;;;;;14.80;99.90;15.10;99187.00;;;;340826;28;83496;-89
2023/03/31 00:36:47;;;;;;;;;;;14.80;99.90;15.10;99191.00;;;;343250;28;88010;-89
2023/03/31 00:37:01;;;;;;;;;;;14.80;99.90;15.20;99191.00;;;;343497;28;83507;-89
2023/03/31 00:37:15;;;;;;;;;;;14.80;99.90;15.10;99186.00;;;;341827;28;88294;-89
2023/03/31 00:37:28;;;;;;;;;;;14.90;99.90;15.20;99194.00;;;;343893;28;83039;-89
2023/03/31 00:37:42;;;;;;;;;;;14.80;99.90;15.10;99188.00;;;;340773;28;88244;-89
2023/03/31 00:37:56;;;;;;;;;;;14.80;99.90;15.10;99192.00;;;;342459;28;82455;-89
2023/03/31 00:38:08;;;;;;;;;;;14.80;99.90;15.10;99187.00;;;;342006;28;89627;-90
2023/03/31 00:38:20;;;;;;;;;;;14.80;99.90;15.10;99184.00;;;;340911;28;83582;-89
2023/03/31 00:38:32;;;;;;;;;;;14.80;99.90;15.10;99182.00;;;;340491;28;91635;-89
2023/03/31 00:38:44;;;;;;;;;;;14.80;99.90;15.00;99180.00;;;;341359;28;83339;-89
2023/03/31 00:39:01;;;;;;;;;;;14.80;99.90;15.10;99185.00;;;;341712;28;89447;-88
2023/03/31 00:39:15;;;;;;;;;;;14.80;99.90;15.10;99185.00;;;;341092;28;83505;-90
2023/03/31 00:39:30;;;;;;;;;;;14.80;99.90;15.10;99178.00;;;;340715;28;89923;-89
2023/03/31 00:39:42;;;;;;;;;;;14.80;99.90;15.20;99177.00;;;;342421;28;82224;-89
2023/03/31 00:39:54;;;;;;;;;;;14.80;99.90;15.10;99174.00;;;;340442;28;89683;-88
2023/03/31 00:40:09;;;;;;;;;;;14.80;99.90;15.20;99176.00;;;;342385;28;82415;-89
2023/03/31 00:40:21;;;;;;;;;;;14.80;99.90;15.10;99168.00;;;;336441;28;92453;-89
2023/03/31 00:40:34;;;;;;;;;;;14.80;99.90;15.10;99177.00;;;;340823;28;83638;-90
2023/03/31 00:40:46;;;;;;;;;;;14.80;99.90;15.10;99159.00;;;;342015;28;90102;-89
2023/03/31 00:40:58;;;;;;;;;;;14.80;99.90;15.10;99176.00;;;;343657;28;82557;-89
2023/03/31 00:41:10;;;;;;;;;;;14.80;99.90;15.20;99161.00;;;;342027;28;88771;-89
2023/03/31 00:41:22;;;;;;;;;;;14.80;99.90;15.10;99170.00;;;;340981;28;83352;-90
2023/03/31 00:41:35;;;;;;;;;;;14.80;99.90;15.20;99165.00;;;;343122;28;90713;-88
2023/03/31 00:41:47;;;;;;;;;;;14.80;99.90;15.20;99156.00;;;;342142;28;83487;-90
2023/03/31 00:42:01;;;;;;;;;;;14.80;99.90;15.20;99175.00;;;;341987;28;87202;-90
2023/03/31 00:42:13;;;;;;;;;;;14.80;99.90;15.30;99168.00;;;;343670;28;84211;-89
2023/03/31 00:42:25;;;;;;;;;;;14.80;99.90;15.20;99158.00;;;;340571;28;91347;-89
2023/03/31 00:42:40;;;;;;;;;;;14.80;99.90;15.20;99153.00;;;;339796;28;82698;-90
2023/03/31 00:42:52;;;;;;;;;;;14.90;99.90;15.10;99156.00;;;;340827;28;86593;-88
2023/03/31 00:43:05;;;;;;;;;;;14.80;99.90;15.10;99153.00;;;;338473;28;83352;-89
2023/03/31 00:43:36;;;;;;;;;;;14.80;99.90;15.10;99167.00;;;;339271;28;89455;-90
2023/03/31 00:44:05;;;;;;;;;;;14.80;99.90;15.20;99164.00;;;;343662;28;83520;-89
2023/03/31 00:44:28;;;;;;;;;;;14.80;99.90;15.10;99156.00;;;;339161;28;92026;-90
2023/03/31 00:45:13;;;;;;;;;;;14.80;99.90;15.20;99164.00;;;;338300;28;83436;-88
2023/03/31 00:45:29;;;;;;;;;;;14.80;99.90;15.10;99156.00;;;;339203;28;91070;-88
2023/03/31 00:45:41;;;;;;;;;;;14.80;99.90;15.00;99156.00;;;;341011;28;83364;-90
2023/03/31 00:45:57;;;;;;;;;;;14.80;99.90;15.10;99150.00;;;;341926;28;90464;-89
2023/03/31 00:46:18;;;;;;;;;;;14.80;99.90;15.10;99153.00;;;;342134;28;83269;-89
2023/03/31 00:46:30;;;;;;;;;;;14.80;99.90;15.10;99158.00;;;;340671;28;90922;-89
2023/03/31 00:46:50;;;;;;;;;;;14.80;99.90;15.10;99143.00;;;;342455;28;83494;-89
2023/03/31 00:47:18;;;;;;;;;;;14.80;99.90;15.10;99153.00;;;;340370;28;89532;-89
2023/03/31 00:47:30;;;;;;;;;;;14.80;99.90;15.20;99151.00;;;;343796;28;83351;-89
2023/03/31 00:48:09;;;;;;;;;;;14.80;99.90;15.20;99141.00;;;;340173;28;90430;-89
2023/03/31 00:48:23;;;;;;;;;;;14.80;99.90;15.10;99151.00;;;;338120;28;82421;-89
2023/03/31 00:48:35;;;;;;;;;;;14.80;99.90;15.20;99139.00;;;;341563;28;89615;-89
2023/03/31 00:48:52;;;;;;;;;;;14.80;99.90;15.10;99152.00;;;;342419;28;83556;-90
2023/03/31 00:49:04;;;;;;;;;;;14.90;99.90;15.20;99148.00;;;;342065;28;90252;-90
2023/03/31 00:49:26;;;;;;;;;;;14.80;99.90;15.10;99144.00;;;;342296;28;83423;-90
2023/03/31 00:49:44;;;;;;;;;;;14.90;99.90;15.20;99149.00;;;;337630;28;89139;-89
2023/03/31 00:49:56;;;;;;;;;;;14.80;99.90;15.20;99155.00;;;;341213;28;83354;-89
2023/03/31 00:50:20;;;;;;;;;;;14.90;99.90;15.20;99149.00;;;;341880;28;89410;-89
2023/03/31 00:50:34;;;;;;;;;;;14.90;99.90;15.20;99142.00;;;;341007;28;82416;-89
2023/03/31 00:50:50;;;;;;;;;;;14.90;99.90;15.10;99141.00;;;;339095;28;90107;-89
2023/03/31 00:51:03;;;;;;;;;;;14.90;99.90;15.10;99139.00;;;;343885;28;83156;-89
2023/03/31 00:51:16;;;;;;;;;;;14.90;99.90;15.10;99135.00;;;;340751;28;89797;-89
2023/03/31 00:51:29;;;;;;;;;;;14.90;99.90;15.20;99143.00;;;;343850;28;82339;-89
2023/03/31 00:51:41;;;;;;;;;;;14.80;99.90;15.20;99148.00;;;;343068;28;89365;-89
2023/03/31 00:51:56;;;;;;;;;;;14.90;99.90;15.10;99139.00;;;;341017;28;83431;-89
2023/03/31 00:52:20;;;;;;;;;;;14.90;99.90;15.10;99140.00;;;;341990;28;87768;-90
2023/03/31 00:52:36;;;;;;;;;;;14.90;99.90;15.10;99140.00;;;;345338;28;82559;-90
2023/03/31 00:52:55;;;;;;;;;;;14.80;99.90;15.10;99141.00;;;;340619;28;88521;-90
2023/03/31 00:53:09;;;;;;;;;;;14.90;99.90;15.10;99144.00;;;;340998;28;83309;-89
2023/03/31 00:53:24;;;;;;;;;;;14.80;99.90;15.10;99134.00;;;;340457;28;91513;-90
2023/03/31 00:53:36;;;;;;;;;;;14.80;99.90;15.10;99133.00;;;;341905;28;82606;-90
2023/03/31 00:53:54;;;;;;;;;;;14.80;99.90;15.10;99133.00;;;;343235;28;87510;-89
2023/03/31 00:54:07;;;;;;;;;;;14.80;99.90;15.10;99139.00;;;;342103;28;83542;-89
2023/03/31 00:54:20;;;;;;;;;;;14.90;99.90;15.10;99139.00;;;;342680;28;91517;-90
2023/03/31 00:54:32;;;;;;;;;;;14.90;99.90;15.10;99133.00;;;;343552;28;82565;-89
2023/03/31 00:54:45;;;;;;;;;;;14.80;99.90;15.20;99131.00;;;;339014;28;89383;-89
2023/03/31 00:54:59;;;;;;;;;;;14.80;99.90;15.10;99136.00;;;;341943;28;83278;-89
2023/03/31 00:55:15;;;;;;;;;;;14.90;99.90;15.10;99129.00;;;;341424;28;89495;-89
2023/03/31 00:55:31;;;;;;;;;;;14.80;99.90;15.00;99145.00;;;;339568;28;82589;-89
2023/03/31 00:55:45;;;;;;;;;;;14.80;99.90;15.10;99130.00;;;;340220;28;89580;-90
2023/03/31 00:56:00;;;;;;;;;;;14.80;99.90;15.10;99131.00;;;;342227;28;83434;-89
2023/03/31 00:56:12;;;;;;;;;;;14.80;99.90;15.10;99132.00;;;;341532;28;91742;-89
2023/03/31 00:56:25;;;;;;;;;;;14.80;99.90;15.10;99127.00;;;;342276;28;83535;-89
2023/03/31 00:56:38;;;;;;;;;;;14.80;99.90;15.10;99129.00;;;;343043;28;90027;-89
2023/03/31 00:56:52;;;;;;;;;;;14.80;99.90;15.00;99126.00;;;;343679;28;82477;-89
2023/03/31 00:57:05;;;;;;;;;;;14.80;99.90;15.00;99129.00;;;;344467;28;91618;-89
2023/03/31 00:57:17;;;;;;;;;;;14.80;99.90;15.00;99126.00;;;;342105;28;82504;-89
2023/03/31 00:57:31;;;;;;;;;;;14.80;99.90;15.00;99129.00;;;;341773;28;90048;-90
2023/03/31 00:57:43;;;;;;;;;;;14.80;99.90;15.00;99125.00;;;;340611;28;83437;-89
2023/03/31 00:57:56;;;;;;;;;;;14.80;99.90;15.00;99135.00;;;;341735;28;89398;-89
2023/03/31 00:58:13;;;;;;;;;;;14.80;99.90;15.10;99123.00;;;;339359;28;82593;-90
2023/03/31 00:58:27;;;;;;;;;;;14.80;99.90;15.10;99128.00;;;;342918;28;90163;-89
2023/03/31 00:58:42;;;;;;;;;;;14.80;99.90;15.10;99127.00;;;;341963;28;82776;-89
2023/03/31 00:58:56;;;;;;;;;;;14.80;99.90;15.00;99120.00;;;;338810;28;91464;-89
2023/03/31 00:59:10;;;;;;;;;;;14.80;99.90;15.00;99119.00;;;;342253;28;82515;-89
2023/03/31 00:59:26;;;;;;;;;;;14.80;99.90;15.00;99120.00;;;;339212;28;87650;-89
2023/03/31 00:59:41;;;;;;;;;;;14.80;99.90;15.10;99118.00;;;;340717;28;82411;-89
2023/03/31 00:59:57;;;;;;;;;;;14.80;99.90;15.10;99118.00;;;;340405;28;91092;-89
2023/03/31 01:00:20;;;;;;;;;;;14.80;99.90;15.00;99122.00;;;;342245;28;82405;-89
2023/03/31 01:00:32;;;;;;;;;;;14.80;99.90;15.10;99111.00;;;;340555;28;89200;-89
2023/03/31 01:00:46;;;;;;;;;;;14.80;99.90;15.00;99120.00;;;;342385;28;82404;-89
2023/03/31 01:01:01;;;;;;;;;;;14.80;99.90;15.00;99118.00;;;;340375;28;89723;-89
2023/03/31 01:01:15;;;;;;;;;;;14.80;99.90;15.00;99118.00;;;;341869;28;83536;-89
2023/03/31 01:01:29;;;;;;;;;;;14.80;99.90;15.00;99117.00;;;;340256;28;92640;-89
2023/03/31 01:01:41;;;;;;;;;;;14.80;99.90;15.00;99119.00;;;;341980;28;83518;-89
2023/03/31 01:01:54;;;;;;;;;;;14.80;99.90;15.00;99120.00;;;;340370;28;89719;-89
2023/03/31 01:02:06;;;;;;;;;;;14.80;99.90;15.00;99121.00;;;;342154;28;83316;-90
2023/03/31 01:02:19;;;;;;;;;;;14.80;99.90;15.00;99123.00;;;;338836;28;89816;-89
2023/03/31 01:02:31;;;;;;;;;;;14.80;99.90;15.00;99119.00;;;;342223;28;83343;-89
2023/03/31 01:02:51;;;;;;;;;;;14.80;99.90;15.00;99120.00;;;;341686;28;91156;-89
2023/03/31 01:03:05;;;;;;;;;;;14.80;99.90;15.00;99125.00;;;;343212;28;83538;-89
2023/03/31 01:03:18;;;;;;;;;;;14.80;99.90;15.00;99125.00;;;;341413;28;91062;-90
2023/03/31 01:03:32;;;;;;;;;;;14.80;99.90;15.00;99118.00;;;;341834;28;83443;-89
2023/03/31 01:03:45;;;;;;;;;;;14.80;99.90;15.10;99124.00;;;;340355;28;90703;-89
2023/03/31 01:03:58;;;;;;;;;;;14.80;99.90;15.10;99122.00;;;;342271;28;82475;-89
2023/03/31 01:04:10;;;;;;;;;;;14.70;99.90;15.20;99128.00;;;;339983;28;91098;-89
2023/03/31 01:04:22;;;;;;;;;;;14.80;99.90;15.10;99122.00;;;;340699;28;83541;-89
2023/03/31 01:04:41;;;;;;;;;;;14.80;99.90;15.10;99114.00;;;;341746;28;91390;-88
2023/03/31 01:04:58;;;;;;;;;;;14.80;99.90;15.10;99120.00;;;;339366;28;83525;-89
2023/03/31 01:05:10;;;;;;;;;;;14.80;99.90;15.20;99130.00;;;;341766;28;89459;-89
2023/03/31 01:05:26;;;;;;;;;;;14.80;99.90;15.10;99118.00;;;;343517;28;82566;-89
2023/03/31 01:05:58;;;;;;;;;;;14.80;99.90;15.00;99127.00;;;;338819;28;91643;-89
2023/03/31 01:06:10;;;;;;;;;;;14.80;99.90;15.00;99117.00;;;;340777;28;83352;-89
2023/03/31 01:06:22;;;;;;;;;;;14.80;99.90;15.00;99116.00;;;;341433;28;90687;-89
2023/03/31 01:06:37;;;;;;;;;;;14.80;99.90;15.00;99118.00;;;;339519;28;83372;-89
2023/03/31 01:06:59;;;;;;;;;;;14.80;99.90;15.00;99125.00;;;;340360;28;91674;-89
2023/03/31 01:07:26;;;;;;;;;;;14.80;99.90;15.10;99108.00;;;;342138;28;83413;-89
2023/03/31 01:07:43;;;;;;;;;;;14.80;99.90;15.00;99122.00;;;;341656;28;88680;-89
2023/03/31 01:07:55;;;;;;;;;;;14.80;99.90;15.00;99114.00;;;;340705;28;82313;-89
2023/03/31 01:08:06;;;;;;;;;;;14.80;99.90;15.00;99117.00;;;;340268;28;89463;-89
2023/03/31 01:08:23;;;;;;;;;;;14.80;99.90;15.00;99123.00;;;;342123;28;83346;-89
2023/03/31 01:08:35;;;;;;;;;;;14.80;99.90;15.00;99119.00;;;;341626;28;91432;-90
2023/03/31 01:08:47;;;;;;;;;;;14.80;99.90;15.00;99126.00;;;;339542;28;83406;-89
2023/03/31 01:08:59;;;;;;;;;;;14.80;99.90;15.00;99110.00;;;;341670;28;90546;-89
2023/03/31 01:09:12;;;;;;;;;;;14.80;99.90;15.00;99113.00;;;;339367;28;83468;-89
2023/03/31 01:09:24;;;;;;;;;;;14.70;99.90;15.00;99119.00;;;;337760;28;88091;-89
2023/03/31 01:09:37;;;;;;;;;;;14.80;99.90;15.00;99128.00;;;;341931;28;82363;-89
2023/03/31 01:09:49;;;;;;;;;;;14.80;99.90;15.00;99125.00;;;;340430;28;90110;-89